sensor_id;sensor_type;location;lat;lon;timestamp;P1;durP1;ratioP1;P2;durP2;ratioP2
17528;SDS011;8882;53.192;8.184;2022-12-29T05:30:33;0.70;;;0.70;;
17528;SDS011;8882;53.192;8.184;2022-12-29T05:32:58;0.57;;;0.57;;
17528;SDS011;8882;53.192;8.184;2022-12-29T05:35:24;0.80;;;0.80;;
17528;SDS011;8882;53.192;8.184;2022-12-29T05:37:49;1.00;;;0.90;;
17528;SDS011;8882;53.192;8.184;2022-12-29T05:40:15;2.00;;;0.80;;
17528;SDS011;8882;53.192;8.184;2022-12-29T05:42:40;1.00;;;1.00;;
17528;SDS011;8882;53.192;8.184;2022-12-29T05:45:06;1.20;;;0.73;;
17528;SDS011;8882;53.192;8.184;2022-12-29T05:47:32;4.00;;;1.00;;
17528;SDS011;8882;53.192;8.184;2022-12-29T05:49:58;2.50;;;0.77;;
17528;SDS011;8882;53.192;8.184;2022-12-29T05:52:23;1.30;;;0.80;;
17528;SDS011;8882;53.192;8.184;2022-12-29T05:54:49;2.53;;;0.80;;
17528;SDS011;8882;53.192;8.184;2022-12-29T05:57:14;0.90;;;0.80;;
17528;SDS011;8882;53.192;8.184;2022-12-29T05:59:40;0.80;;;0.80;;
17528;SDS011;8882;53.192;8.184;2022-12-29T06:02:05;0.60;;;0.60;;
17528;SDS011;8882;53.192;8.184;2022-12-29T06:04:31;0.80;;;0.80;;
17528;SDS011;8882;53.192;8.184;2022-12-29T06:06:56;0.90;;;0.90;;
17528;SDS011;8882;53.192;8.184;2022-12-29T06:09:22;2.57;;;0.80;;
17528;SDS011;8882;53.192;8.184;2022-12-29T06:11:47;1.27;;;1.03;;
17528;SDS011;8882;53.192;8.184;2022-12-29T06:14:13;2.53;;;1.13;;
17528;SDS011;8882;53.192;8.184;2022-12-29T06:16:38;1.37;;;1.10;;
17528;SDS011;8882;53.192;8.184;2022-12-29T06:19:04;1.47;;;1.30;;
17528;SDS011;8882;53.192;8.184;2022-12-29T06:21:29;0.80;;;0.80;;
17528;SDS011;8882;53.192;8.184;2022-12-29T06:23:55;1.20;;;1.10;;
17528;SDS011;8882;53.192;8.184;2022-12-29T06:26:20;1.07;;;1.07;;
17528;SDS011;8882;53.192;8.184;2022-12-29T06:28:46;1.00;;;0.90;;
17528;SDS011;8882;53.192;8.184;2022-12-29T06:31:11;0.70;;;0.70;;
17528;SDS011;8882;53.192;8.184;2022-12-29T06:33:37;2.27;;;1.07;;
17528;SDS011;8882;53.192;8.184;2022-12-29T06:36:03;3.40;;;1.20;;
17528;SDS011;8882;53.192;8.184;2022-12-29T06:38:29;2.00;;;0.80;;
17528;SDS011;8882;53.192;8.184;2022-12-29T06:40:55;1.90;;;0.93;;
17528;SDS011;8882;53.192;8.184;2022-12-29T06:43:20;1.37;;;0.87;;
17528;SDS011;8882;53.192;8.184;2022-12-29T06:45:46;1.57;;;0.83;;
17528;SDS011;8882;53.192;8.184;2022-12-29T06:48:11;2.97;;;0.97;;
17528;SDS011;8882;53.192;8.184;2022-12-29T06:50:37;1.13;;;0.70;;
17528;SDS011;8882;53.192;8.184;2022-12-29T06:53:03;2.50;;;0.83;;
17528;SDS011;8882;53.192;8.184;2022-12-29T06:55:28;1.13;;;1.10;;
17528;SDS011;8882;53.192;8.184;2022-12-29T06:57:57;3.47;;;1.20;;
17528;SDS011;8882;53.192;8.184;2022-12-29T07:00:23;2.33;;;1.30;;
17528;SDS011;8882;53.192;8.184;2022-12-29T07:02:49;0.90;;;0.90;;
17528;SDS011;8882;53.192;8.184;2022-12-29T07:05:15;1.17;;;1.07;;
17528;SDS011;8882;53.192;8.184;2022-12-29T07:07:40;1.30;;;1.20;;
17528;SDS011;8882;53.192;8.184;2022-12-29T07:10:06;1.97;;;1.33;;
17528;SDS011;8882;53.192;8.184;2022-12-29T07:12:32;1.17;;;1.00;;
17528;SDS011;8882;53.192;8.184;2022-12-29T07:14:57;1.27;;;1.20;;
17528;SDS011;8882;53.192;8.184;2022-12-29T07:17:22;2.87;;;1.20;;
17528;SDS011;8882;53.192;8.184;2022-12-29T07:19:48;2.60;;;1.30;;
17528;SDS011;8882;53.192;8.184;2022-12-29T07:22:13;2.70;;;1.40;;
17528;SDS011;8882;53.192;8.184;2022-12-29T07:24:39;2.00;;;1.20;;
17528;SDS011;8882;53.192;8.184;2022-12-29T07:27:05;1.90;;;1.20;;
17528;SDS011;8882;53.192;8.184;2022-12-29T07:29:30;2.20;;;1.37;;
17528;SDS011;8882;53.192;8.184;2022-12-29T07:31:56;3.43;;;1.70;;
17528;SDS011;8882;53.192;8.184;2022-12-29T07:34:21;2.47;;;1.40;;
17528;SDS011;8882;53.192;8.184;2022-12-29T07:36:47;2.70;;;1.10;;
17528;SDS011;8882;53.192;8.184;2022-12-29T07:39:12;2.47;;;1.17;;
17528;SDS011;8882;53.192;8.184;2022-12-29T07:41:38;2.70;;;1.10;;
17528;SDS011;8882;53.192;8.184;2022-12-29T07:44:03;2.13;;;1.00;;
17528;SDS011;8882;53.192;8.184;2022-12-29T07:46:29;2.03;;;1.10;;
17528;SDS011;8882;53.192;8.184;2022-12-29T07:48:54;1.40;;;1.27;;
17528;SDS011;8882;53.192;8.184;2022-12-29T07:51:20;4.27;;;1.10;;
17528;SDS011;8882;53.192;8.184;2022-12-29T07:53:45;2.73;;;1.03;;
17528;SDS011;8882;53.192;8.184;2022-12-29T07:56:11;3.50;;;1.10;;
17528;SDS011;8882;53.192;8.184;2022-12-29T07:58:36;2.70;;;1.40;;
17528;SDS011;8882;53.192;8.184;2022-12-29T08:01:02;2.90;;;1.07;;
17528;SDS011;8882;53.192;8.184;2022-12-29T08:03:27;3.03;;;0.93;;
17528;SDS011;8882;53.192;8.184;2022-12-29T08:05:53;2.63;;;1.00;;
17528;SDS011;8882;53.192;8.184;2022-12-29T08:08:18;4.63;;;1.10;;
17528;SDS011;8882;53.192;8.184;2022-12-29T08:10:45;1.77;;;1.03;;
17528;SDS011;8882;53.192;8.184;2022-12-29T08:13:10;3.40;;;0.80;;
17528;SDS011;8882;53.192;8.184;2022-12-29T08:15:37;2.10;;;1.30;;
17528;SDS011;8882;53.192;8.184;2022-12-29T08:18:03;5.20;;;1.30;;
17528;SDS011;8882;53.192;8.184;2022-12-29T08:20:28;4.50;;;1.10;;
17528;SDS011;8882;53.192;8.184;2022-12-29T08:22:54;1.70;;;0.93;;
17528;SDS011;8882;53.192;8.184;2022-12-29T08:25:20;3.67;;;0.97;;
17528;SDS011;8882;53.192;8.184;2022-12-29T08:27:46;3.40;;;1.00;;
17528;SDS011;8882;53.192;8.184;2022-12-29T08:30:11;2.63;;;1.17;;
17528;SDS011;8882;53.192;8.184;2022-12-29T08:32:37;5.03;;;1.10;;
17528;SDS011;8882;53.192;8.184;2022-12-29T08:35:03;3.37;;;1.00;;
17528;SDS011;8882;53.192;8.184;2022-12-29T08:37:28;8.43;;;1.30;;
17528;SDS011;8882;53.192;8.184;2022-12-29T08:39:54;3.20;;;1.20;;
17528;SDS011;8882;53.192;8.184;2022-12-29T08:42:20;3.20;;;1.00;;
17528;SDS011;8882;53.192;8.184;2022-12-29T08:44:45;1.77;;;1.10;;
17528;SDS011;8882;53.192;8.184;2022-12-29T08:47:11;6.50;;;1.27;;
17528;SDS011;8882;53.192;8.184;2022-12-29T08:49:36;8.10;;;2.13;;
17528;SDS011;8882;53.192;8.184;2022-12-29T08:52:03;3.93;;;1.13;;
17528;SDS011;8882;53.192;8.184;2022-12-29T08:54:29;4.63;;;1.00;;
17528;SDS011;8882;53.192;8.184;2022-12-29T08:56:54;2.47;;;0.87;;
17528;SDS011;8882;53.192;8.184;2022-12-29T08:59:20;4.07;;;1.20;;
17528;SDS011;8882;53.192;8.184;2022-12-29T09:01:45;4.20;;;1.03;;
17528;SDS011;8882;53.192;8.184;2022-12-29T09:04:11;1.30;;;1.20;;
17528;SDS011;8882;53.192;8.184;2022-12-29T09:06:36;1.43;;;0.80;;
17528;SDS011;8882;53.192;8.184;2022-12-29T09:09:02;8.93;;;1.40;;
17528;SDS011;8882;53.192;8.184;2022-12-29T09:11:28;2.57;;;1.13;;
17528;SDS011;8882;53.192;8.184;2022-12-29T09:13:53;1.30;;;1.20;;
17528;SDS011;8882;53.192;8.184;2022-12-29T09:16:20;2.73;;;1.00;;
17528;SDS011;8882;53.192;8.184;2022-12-29T09:18:47;1.73;;;1.10;;
17528;SDS011;8882;53.192;8.184;2022-12-29T09:21:12;2.17;;;1.20;;
17528;SDS011;8882;53.192;8.184;2022-12-29T09:23:38;2.87;;;1.20;;
17528;SDS011;8882;53.192;8.184;2022-12-29T09:26:05;1.73;;;1.13;;
17528;SDS011;8882;53.192;8.184;2022-12-29T09:28:32;7.37;;;1.43;;
17528;SDS011;8882;53.192;8.184;2022-12-29T09:30:58;2.73;;;1.20;;
17528;SDS011;8882;53.192;8.184;2022-12-29T09:33:24;8.80;;;1.60;;
17528;SDS011;8882;53.192;8.184;2022-12-29T09:35:51;4.40;;;1.20;;
17528;SDS011;8882;53.192;8.184;2022-12-29T09:38:21;5.50;;;1.30;;
17528;SDS011;8882;53.192;8.184;2022-12-29T09:40:52;3.33;;;1.27;;
17528;SDS011;8882;53.192;8.184;2022-12-29T09:43:32;3.10;;;1.30;;
17528;SDS011;8882;53.192;8.184;2022-12-29T09:46:37;4.07;;;1.00;;
17528;SDS011;8882;53.192;8.184;2022-12-29T09:52:08;1.50;;;0.73;;
17528;SDS011;8882;53.192;8.184;2022-12-29T09:54:57;4.97;;;1.13;;
17528;SDS011;8882;53.192;8.184;2022-12-29T09:57:35;2.97;;;1.37;;
17528;SDS011;8882;53.192;8.184;2022-12-29T10:00:14;5.17;;;1.27;;
17528;SDS011;8882;53.192;8.184;2022-12-29T10:02:43;2.50;;;1.00;;
17528;SDS011;8882;53.192;8.184;2022-12-29T10:05:26;2.30;;;1.03;;
17528;SDS011;8882;53.192;8.184;2022-12-29T10:10:49;2.57;;;1.17;;
17528;SDS011;8882;53.192;8.184;2022-12-29T10:16:12;2.27;;;0.93;;
17528;SDS011;8882;53.192;8.184;2022-12-29T10:24:10;3.70;;;1.20;;
17528;SDS011;8882;53.192;8.184;2022-12-29T10:26:43;7.43;;;1.20;;
17528;SDS011;8882;53.192;8.184;2022-12-29T10:29:18;4.50;;;0.87;;
17528;SDS011;8882;53.192;8.184;2022-12-29T10:31:58;5.80;;;1.03;;
17528;SDS011;8882;53.192;8.184;2022-12-29T10:34:26;1.73;;;0.73;;
17528;SDS011;8882;53.192;8.184;2022-12-29T10:37:03;1.60;;;0.90;;
17528;SDS011;8882;53.192;8.184;2022-12-29T10:39:38;4.13;;;0.80;;
17528;SDS011;8882;53.192;8.184;2022-12-29T10:45:06;2.87;;;0.93;;
17528;SDS011;8882;53.192;8.184;2022-12-29T10:47:38;2.90;;;1.10;;
17528;SDS011;8882;53.192;8.184;2022-12-29T10:50:25;4.77;;;0.90;;
17528;SDS011;8882;53.192;8.184;2022-12-29T10:52:51;2.57;;;0.83;;
17528;SDS011;8882;53.192;8.184;2022-12-29T10:55:20;1.57;;;0.83;;
17528;SDS011;8882;53.192;8.184;2022-12-29T10:57:49;5.07;;;0.90;;
17528;SDS011;8882;53.192;8.184;2022-12-29T11:00:16;6.87;;;1.23;;
17528;SDS011;8882;53.192;8.184;2022-12-29T11:03:01;0.97;;;0.80;;
17528;SDS011;8882;53.192;8.184;2022-12-29T11:08:24;5.10;;;1.50;;
17528;SDS011;8882;53.192;8.184;2022-12-29T11:10:59;3.93;;;1.30;;
17528;SDS011;8882;53.192;8.184;2022-12-29T11:13:28;4.40;;;1.00;;
17528;SDS011;8882;53.192;8.184;2022-12-29T11:15:55;1.53;;;1.10;;
17528;SDS011;8882;53.192;8.184;2022-12-29T11:18:22;6.73;;;1.43;;
17528;SDS011;8882;53.192;8.184;2022-12-29T11:20:51;4.07;;;1.20;;
17528;SDS011;8882;53.192;8.184;2022-12-29T11:28:36;2.53;;;0.80;;
17528;SDS011;8882;53.192;8.184;2022-12-29T11:31:04;3.10;;;1.03;;
17528;SDS011;8882;53.192;8.184;2022-12-29T11:33:31;2.57;;;0.90;;
17528;SDS011;8882;53.192;8.184;2022-12-29T11:36:00;2.23;;;1.20;;
17528;SDS011;8882;53.192;8.184;2022-12-29T11:38:39;2.83;;;1.00;;
17528;SDS011;8882;53.192;8.184;2022-12-29T11:41:22;3.77;;;1.20;;
17528;SDS011;8882;53.192;8.184;2022-12-29T11:43:49;2.50;;;0.97;;
17528;SDS011;8882;53.192;8.184;2022-12-29T11:46:17;0.90;;;0.90;;
17528;SDS011;8882;53.192;8.184;2022-12-29T11:48:58;1.87;;;1.10;;
17528;SDS011;8882;53.192;8.184;2022-12-29T11:51:47;1.83;;;0.90;;
17528;SDS011;8882;53.192;8.184;2022-12-29T11:54:15;1.57;;;1.00;;
17528;SDS011;8882;53.192;8.184;2022-12-29T11:56:51;4.57;;;1.27;;
17528;SDS011;8882;53.192;8.184;2022-12-29T12:02:26;2.93;;;1.27;;
17528;SDS011;8882;53.192;8.184;2022-12-29T12:05:11;2.43;;;1.00;;
17528;SDS011;8882;53.192;8.184;2022-12-29T12:07:42;3.13;;;1.00;;
17528;SDS011;8882;53.192;8.184;2022-12-29T12:10:18;5.00;;;1.20;;
17528;SDS011;8882;53.192;8.184;2022-12-29T12:12:50;5.87;;;1.43;;
17528;SDS011;8882;53.192;8.184;2022-12-29T12:15:39;2.07;;;0.80;;
17528;SDS011;8882;53.192;8.184;2022-12-29T12:20:53;2.20;;;1.07;;
17528;SDS011;8882;53.192;8.184;2022-12-29T12:23:30;3.93;;;1.20;;
17528;SDS011;8882;53.192;8.184;2022-12-29T12:26:12;4.17;;;1.07;;
17528;SDS011;8882;53.192;8.184;2022-12-29T12:28:59;5.13;;;1.10;;
17528;SDS011;8882;53.192;8.184;2022-12-29T12:32:08;3.70;;;1.00;;
17528;SDS011;8882;53.192;8.184;2022-12-29T12:34:26;3.07;;;1.03;;
17528;SDS011;8882;53.192;8.184;2022-12-29T12:43:11;1.80;;;0.93;;
17528;SDS011;8882;53.192;8.184;2022-12-29T13:00:18;2.57;;;1.17;;
17528;SDS011;8882;53.192;8.184;2022-12-29T13:02:58;2.67;;;0.70;;
17528;SDS011;8882;53.192;8.184;2022-12-29T13:13:46;2.50;;;0.87;;
17528;SDS011;8882;53.192;8.184;2022-12-29T13:18:57;2.80;;;0.90;;
17528;SDS011;8882;53.192;8.184;2022-12-29T13:21:46;7.63;;;1.33;;
17528;SDS011;8882;53.192;8.184;2022-12-29T13:24:27;2.77;;;1.20;;
17528;SDS011;8882;53.192;8.184;2022-12-29T13:26:59;5.70;;;1.13;;
17528;SDS011;8882;53.192;8.184;2022-12-29T13:29:36;4.23;;;1.50;;
17528;SDS011;8882;53.192;8.184;2022-12-29T13:32:15;3.17;;;1.10;;
17528;SDS011;8882;53.192;8.184;2022-12-29T13:37:49;1.87;;;1.00;;
17528;SDS011;8882;53.192;8.184;2022-12-29T13:40:19;6.70;;;1.43;;
17528;SDS011;8882;53.192;8.184;2022-12-29T13:42:52;3.53;;;1.17;;
17528;SDS011;8882;53.192;8.184;2022-12-29T13:45:20;3.87;;;1.17;;
17528;SDS011;8882;53.192;8.184;2022-12-29T13:47:51;4.10;;;1.30;;
17528;SDS011;8882;53.192;8.184;2022-12-29T13:50:20;3.20;;;1.50;;
17528;SDS011;8882;53.192;8.184;2022-12-29T13:55:32;6.00;;;1.60;;
17528;SDS011;8882;53.192;8.184;2022-12-29T13:58:22;6.07;;;1.50;;
17528;SDS011;8882;53.192;8.184;2022-12-29T14:03:40;3.87;;;1.30;;
17528;SDS011;8882;53.192;8.184;2022-12-29T14:06:19;4.63;;;1.33;;
17528;SDS011;8882;53.192;8.184;2022-12-29T14:08:52;8.87;;;1.73;;
17528;SDS011;8882;53.192;8.184;2022-12-29T14:11:24;4.53;;;1.20;;
17528;SDS011;8882;53.192;8.184;2022-12-29T14:16:44;4.43;;;1.53;;
17528;SDS011;8882;53.192;8.184;2022-12-29T14:21:54;4.00;;;1.60;;
17528;SDS011;8882;53.192;8.184;2022-12-29T14:27:01;10.77;;;2.17;;
17528;SDS011;8882;53.192;8.184;2022-12-29T14:34:51;8.63;;;2.03;;
17528;SDS011;8882;53.192;8.184;2022-12-29T14:37:30;5.17;;;1.70;;
17528;SDS011;8882;53.192;8.184;2022-12-29T14:42:48;4.07;;;1.20;;
17528;SDS011;8882;53.192;8.184;2022-12-29T14:47:48;5.40;;;1.50;;
17528;SDS011;8882;53.192;8.184;2022-12-29T14:50:20;3.33;;;1.40;;
17528;SDS011;8882;53.192;8.184;2022-12-29T14:56:08;7.33;;;1.30;;
17528;SDS011;8882;53.192;8.184;2022-12-29T14:58:42;3.03;;;1.03;;
17528;SDS011;8882;53.192;8.184;2022-12-29T15:01:17;3.93;;;1.63;;
17528;SDS011;8882;53.192;8.184;2022-12-29T15:03:54;1.60;;;1.20;;
17528;SDS011;8882;53.192;8.184;2022-12-29T15:06:27;5.23;;;1.50;;
17528;SDS011;8882;53.192;8.184;2022-12-29T15:09:06;4.87;;;1.33;;
17528;SDS011;8882;53.192;8.184;2022-12-29T15:14:00;4.07;;;1.10;;
17528;SDS011;8882;53.192;8.184;2022-12-29T15:16:29;8.27;;;1.90;;
17528;SDS011;8882;53.192;8.184;2022-12-29T15:18:57;2.80;;;1.50;;
17528;SDS011;8882;53.192;8.184;2022-12-29T15:21:24;8.87;;;1.60;;
17528;SDS011;8882;53.192;8.184;2022-12-29T15:23:58;4.83;;;1.87;;
17528;SDS011;8882;53.192;8.184;2022-12-29T15:26:35;4.53;;;1.60;;
17528;SDS011;8882;53.192;8.184;2022-12-29T15:32:00;3.47;;;1.30;;
17528;SDS011;8882;53.192;8.184;2022-12-29T15:34:40;5.97;;;1.80;;
17528;SDS011;8882;53.192;8.184;2022-12-29T15:37:06;3.70;;;1.57;;
17528;SDS011;8882;53.192;8.184;2022-12-29T15:39:33;4.83;;;1.70;;
17528;SDS011;8882;53.192;8.184;2022-12-29T15:42:07;2.90;;;1.40;;
17528;SDS011;8882;53.192;8.184;2022-12-29T15:44:48;5.60;;;1.40;;
17528;SDS011;8882;53.192;8.184;2022-12-29T15:49:42;4.07;;;1.30;;
17528;SDS011;8882;53.192;8.184;2022-12-29T15:52:09;6.37;;;1.43;;
17528;SDS011;8882;53.192;8.184;2022-12-29T15:54:35;8.43;;;2.00;;
17528;SDS011;8882;53.192;8.184;2022-12-29T15:57:01;8.57;;;1.50;;
17528;SDS011;8882;53.192;8.184;2022-12-29T15:59:28;4.43;;;1.93;;
17528;SDS011;8882;53.192;8.184;2022-12-29T16:01:56;7.63;;;1.50;;
17528;SDS011;8882;53.192;8.184;2022-12-29T16:04:30;11.47;;;2.23;;
17528;SDS011;8882;53.192;8.184;2022-12-29T16:06:58;9.80;;;1.80;;
17528;SDS011;8882;53.192;8.184;2022-12-29T16:09:44;7.27;;;2.50;;
17528;SDS011;8882;53.192;8.184;2022-12-29T16:12:19;5.33;;;1.90;;
17528;SDS011;8882;53.192;8.184;2022-12-29T16:14:48;7.40;;;1.87;;
17528;SDS011;8882;53.192;8.184;2022-12-29T16:17:21;7.50;;;2.50;;
17528;SDS011;8882;53.192;8.184;2022-12-29T16:19:55;7.30;;;1.97;;
17528;SDS011;8882;53.192;8.184;2022-12-29T16:24:58;4.07;;;1.80;;
17528;SDS011;8882;53.192;8.184;2022-12-29T16:27:44;5.93;;;1.80;;
17528;SDS011;8882;53.192;8.184;2022-12-29T16:30:20;3.53;;;1.70;;
17528;SDS011;8882;53.192;8.184;2022-12-29T16:32:52;5.47;;;2.10;;
17528;SDS011;8882;53.192;8.184;2022-12-29T16:35:20;2.30;;;1.80;;
17528;SDS011;8882;53.192;8.184;2022-12-29T16:37:48;7.37;;;1.70;;
17528;SDS011;8882;53.192;8.184;2022-12-29T16:40:33;9.07;;;2.77;;
17528;SDS011;8882;53.192;8.184;2022-12-29T16:43:03;8.93;;;2.93;;
17528;SDS011;8882;53.192;8.184;2022-12-29T16:48:15;5.33;;;2.53;;
17528;SDS011;8882;53.192;8.184;2022-12-29T16:50:44;8.13;;;3.13;;
17528;SDS011;8882;53.192;8.184;2022-12-29T16:55:48;10.43;;;2.30;;
17528;SDS011;8882;53.192;8.184;2022-12-29T16:58:18;6.43;;;2.03;;
17528;SDS011;8882;53.192;8.184;2022-12-29T17:00:45;11.67;;;2.27;;
17528;SDS011;8882;53.192;8.184;2022-12-29T17:03:12;6.23;;;2.70;;
17528;SDS011;8882;53.192;8.184;2022-12-29T17:05:38;3.33;;;1.90;;
17528;SDS011;8882;53.192;8.184;2022-12-29T17:08:13;10.03;;;3.10;;
17528;SDS011;8882;53.192;8.184;2022-12-29T17:10:47;5.43;;;2.37;;
17528;SDS011;8882;53.192;8.184;2022-12-29T17:13:36;11.57;;;3.07;;
17528;SDS011;8882;53.192;8.184;2022-12-29T17:16:03;5.73;;;2.40;;
17528;SDS011;8882;53.192;8.184;2022-12-29T17:18:32;5.27;;;2.73;;
17528;SDS011;8882;53.192;8.184;2022-12-29T17:20:58;8.50;;;3.20;;
17528;SDS011;8882;53.192;8.184;2022-12-29T17:23:23;8.37;;;3.50;;
17528;SDS011;8882;53.192;8.184;2022-12-29T17:25:49;8.87;;;2.80;;
17528;SDS011;8882;53.192;8.184;2022-12-29T17:30:45;8.10;;;2.33;;
17528;SDS011;8882;53.192;8.184;2022-12-29T17:33:12;4.43;;;2.80;;
17528;SDS011;8882;53.192;8.184;2022-12-29T17:35:39;6.77;;;2.73;;
17528;SDS011;8882;53.192;8.184;2022-12-29T17:38:47;6.13;;;3.23;;
17528;SDS011;8882;53.192;8.184;2022-12-29T17:40:55;8.47;;;3.33;;
17528;SDS011;8882;53.192;8.184;2022-12-29T17:43:21;6.87;;;3.00;;
17528;SDS011;8882;53.192;8.184;2022-12-29T17:45:49;6.53;;;2.80;;
17528;SDS011;8882;53.192;8.184;2022-12-29T17:48:17;7.77;;;2.93;;
17528;SDS011;8882;53.192;8.184;2022-12-29T17:50:43;6.73;;;2.30;;
17528;SDS011;8882;53.192;8.184;2022-12-29T17:53:12;7.00;;;2.87;;
17528;SDS011;8882;53.192;8.184;2022-12-29T17:55:39;8.03;;;3.30;;
17528;SDS011;8882;53.192;8.184;2022-12-29T18:00:45;5.50;;;2.63;;
17528;SDS011;8882;53.192;8.184;2022-12-29T18:03:18;7.47;;;2.70;;
17528;SDS011;8882;53.192;8.184;2022-12-29T18:05:47;3.03;;;2.30;;
17528;SDS011;8882;53.192;8.184;2022-12-29T18:08:14;5.30;;;2.17;;
17528;SDS011;8882;53.192;8.184;2022-12-29T18:10:39;4.53;;;2.10;;
17528;SDS011;8882;53.192;8.184;2022-12-29T18:13:05;3.13;;;2.20;;
17528;SDS011;8882;53.192;8.184;2022-12-29T18:15:43;6.80;;;2.43;;
17528;SDS011;8882;53.192;8.184;2022-12-29T18:18:10;5.97;;;1.87;;
17528;SDS011;8882;53.192;8.184;2022-12-29T18:20:40;2.53;;;1.30;;
17528;SDS011;8882;53.192;8.184;2022-12-29T18:23:11;1.53;;;0.73;;
17528;SDS011;8882;53.192;8.184;2022-12-29T18:25:56;0.60;;;0.60;;
17528;SDS011;8882;53.192;8.184;2022-12-29T18:28:25;0.83;;;0.63;;
17528;SDS011;8882;53.192;8.184;2022-12-29T18:30:52;0.93;;;0.63;;
17528;SDS011;8882;53.192;8.184;2022-12-29T18:33:20;1.27;;;0.73;;
17528;SDS011;8882;53.192;8.184;2022-12-29T18:35:47;1.10;;;0.90;;
17528;SDS011;8882;53.192;8.184;2022-12-29T18:38:19;2.10;;;0.80;;
17528;SDS011;8882;53.192;8.184;2022-12-29T18:40:45;1.77;;;1.30;;
17528;SDS011;8882;53.192;8.184;2022-12-29T18:43:12;1.63;;;1.23;;
17528;SDS011;8882;53.192;8.184;2022-12-29T18:45:39;0.57;;;0.57;;
17528;SDS011;8882;53.192;8.184;2022-12-29T18:48:05;2.70;;;2.00;;
17528;SDS011;8882;53.192;8.184;2022-12-29T18:50:30;0.70;;;0.70;;
17528;SDS011;8882;53.192;8.184;2022-12-29T18:52:56;4.67;;;1.30;;
17528;SDS011;8882;53.192;8.184;2022-12-29T18:55:22;5.83;;;1.20;;
17528;SDS011;8882;53.192;8.184;2022-12-29T18:57:49;0.60;;;0.60;;
17528;SDS011;8882;53.192;8.184;2022-12-29T19:00:16;2.37;;;0.77;;
17528;SDS011;8882;53.192;8.184;2022-12-29T19:02:43;1.80;;;0.87;;
17528;SDS011;8882;53.192;8.184;2022-12-29T19:05:28;1.53;;;0.77;;
17528;SDS011;8882;53.192;8.184;2022-12-29T19:07:56;2.23;;;0.80;;
17528;SDS011;8882;53.192;8.184;2022-12-29T19:10:22;2.57;;;0.90;;
17528;SDS011;8882;53.192;8.184;2022-12-29T19:12:49;0.73;;;0.73;;
17528;SDS011;8882;53.192;8.184;2022-12-29T19:15:19;1.13;;;1.03;;
17528;SDS011;8882;53.192;8.184;2022-12-29T19:17:55;1.00;;;0.90;;
17528;SDS011;8882;53.192;8.184;2022-12-29T19:20:32;1.70;;;1.17;;
17528;SDS011;8882;53.192;8.184;2022-12-29T19:23:01;2.37;;;1.23;;
17528;SDS011;8882;53.192;8.184;2022-12-29T19:25:28;1.97;;;1.33;;
17528;SDS011;8882;53.192;8.184;2022-12-29T19:27:54;3.40;;;1.57;;
17528;SDS011;8882;53.192;8.184;2022-12-29T19:30:20;8.57;;;1.43;;
17528;SDS011;8882;53.192;8.184;2022-12-29T19:32:47;2.20;;;1.43;;
17528;SDS011;8882;53.192;8.184;2022-12-29T19:35:13;2.40;;;1.80;;
17528;SDS011;8882;53.192;8.184;2022-12-29T19:37:39;2.10;;;1.90;;
17528;SDS011;8882;53.192;8.184;2022-12-29T19:40:09;6.77;;;1.80;;
17528;SDS011;8882;53.192;8.184;2022-12-29T19:42:38;5.27;;;2.00;;
17528;SDS011;8882;53.192;8.184;2022-12-29T19:45:05;4.90;;;2.50;;
17528;SDS011;8882;53.192;8.184;2022-12-29T19:47:31;4.37;;;2.00;;
17528;SDS011;8882;53.192;8.184;2022-12-29T19:49:58;3.00;;;1.83;;
17528;SDS011;8882;53.192;8.184;2022-12-29T19:52:25;4.60;;;2.27;;
17528;SDS011;8882;53.192;8.184;2022-12-29T19:54:51;6.00;;;1.87;;
17528;SDS011;8882;53.192;8.184;2022-12-29T19:57:17;3.80;;;1.77;;
17528;SDS011;8882;53.192;8.184;2022-12-29T19:59:43;2.90;;;1.73;;
17528;SDS011;8882;53.192;8.184;2022-12-29T20:02:16;2.80;;;1.40;;
17528;SDS011;8882;53.192;8.184;2022-12-29T20:04:42;1.90;;;1.30;;
17528;SDS011;8882;53.192;8.184;2022-12-29T20:07:07;3.17;;;1.40;;
17528;SDS011;8882;53.192;8.184;2022-12-29T20:09:33;1.97;;;1.40;;
17528;SDS011;8882;53.192;8.184;2022-12-29T20:11:58;2.97;;;1.20;;
17528;SDS011;8882;53.192;8.184;2022-12-29T20:14:24;2.67;;;1.50;;
17528;SDS011;8882;53.192;8.184;2022-12-29T20:16:49;1.70;;;1.60;;
17528;SDS011;8882;53.192;8.184;2022-12-29T20:19:15;4.90;;;1.90;;
17528;SDS011;8882;53.192;8.184;2022-12-29T20:21:40;6.17;;;1.73;;
17528;SDS011;8882;53.192;8.184;2022-12-29T20:24:06;5.57;;;2.13;;
17528;SDS011;8882;53.192;8.184;2022-12-29T20:26:32;3.47;;;2.13;;
17528;SDS011;8882;53.192;8.184;2022-12-29T20:28:57;5.30;;;2.20;;
17528;SDS011;8882;53.192;8.184;2022-12-29T20:31:31;3.97;;;1.97;;
17528;SDS011;8882;53.192;8.184;2022-12-29T20:33:58;6.73;;;2.40;;
17528;SDS011;8882;53.192;8.184;2022-12-29T20:36:25;7.57;;;1.83;;
17528;SDS011;8882;53.192;8.184;2022-12-29T20:38:53;6.57;;;2.40;;
17528;SDS011;8882;53.192;8.184;2022-12-29T20:41:20;4.33;;;2.10;;
17528;SDS011;8882;53.192;8.184;2022-12-29T20:43:46;3.10;;;2.13;;
17528;SDS011;8882;53.192;8.184;2022-12-29T20:46:12;5.13;;;2.43;;
17528;SDS011;8882;53.192;8.184;2022-12-29T20:48:41;3.40;;;1.90;;
17528;SDS011;8882;53.192;8.184;2022-12-29T20:51:07;6.10;;;2.40;;
17528;SDS011;8882;53.192;8.184;2022-12-29T20:53:33;5.40;;;2.00;;
17528;SDS011;8882;53.192;8.184;2022-12-29T20:56:02;11.07;;;2.70;;
17528;SDS011;8882;53.192;8.184;2022-12-29T20:58:29;4.33;;;2.23;;
17528;SDS011;8882;53.192;8.184;2022-12-29T21:00:58;6.40;;;2.13;;
17528;SDS011;8882;53.192;8.184;2022-12-29T21:03:26;3.47;;;1.97;;
17528;SDS011;8882;53.192;8.184;2022-12-29T21:05:51;4.40;;;2.13;;
17528;SDS011;8882;53.192;8.184;2022-12-29T21:08:19;6.07;;;1.60;;
17528;SDS011;8882;53.192;8.184;2022-12-29T21:10:45;4.23;;;1.97;;
17528;SDS011;8882;53.192;8.184;2022-12-29T21:13:11;3.47;;;1.90;;
17528;SDS011;8882;53.192;8.184;2022-12-29T21:15:37;5.23;;;1.97;;
17528;SDS011;8882;53.192;8.184;2022-12-29T21:18:02;4.50;;;1.80;;
17528;SDS011;8882;53.192;8.184;2022-12-29T21:20:28;10.17;;;2.20;;
17528;SDS011;8882;53.192;8.184;2022-12-29T21:22:55;6.07;;;2.10;;
17528;SDS011;8882;53.192;8.184;2022-12-29T21:25:26;5.10;;;2.07;;
17528;SDS011;8882;53.192;8.184;2022-12-29T21:28:08;8.57;;;2.17;;
17528;SDS011;8882;53.192;8.184;2022-12-29T21:30:37;5.33;;;1.77;;
17528;SDS011;8882;53.192;8.184;2022-12-29T21:33:03;4.40;;;1.70;;
17528;SDS011;8882;53.192;8.184;2022-12-29T21:35:29;8.53;;;1.83;;
17528;SDS011;8882;53.192;8.184;2022-12-29T21:37:55;6.37;;;2.17;;
17528;SDS011;8882;53.192;8.184;2022-12-29T21:40:20;5.90;;;2.17;;
17528;SDS011;8882;53.192;8.184;2022-12-29T21:42:46;4.23;;;2.00;;
17528;SDS011;8882;53.192;8.184;2022-12-29T21:45:12;5.00;;;1.77;;
17528;SDS011;8882;53.192;8.184;2022-12-29T21:47:54;6.47;;;2.27;;
17528;SDS011;8882;53.192;8.184;2022-12-29T21:50:42;4.83;;;1.80;;
17528;SDS011;8882;53.192;8.184;2022-12-29T21:53:29;4.40;;;2.00;;
17528;SDS011;8882;53.192;8.184;2022-12-29T21:56:09;6.10;;;1.90;;
17528;SDS011;8882;53.192;8.184;2022-12-29T21:58:37;3.97;;;1.43;;
